createdAt,value
2022-10-24T00:01:24.312Z,13.56
2022-10-24T00:03:52.205Z,13.53
2022-10-24T00:06:22.752Z,13.53
2022-10-24T00:08:52.124Z,13.55
2022-10-24T00:11:21.815Z,13.53
2022-10-24T00:13:50.293Z,13.56
2022-10-24T00:16:19.525Z,13.54
2022-10-24T00:18:47.497Z,13.55
2022-10-24T00:21:15.502Z,13.56
2022-10-24T00:23:43.104Z,13.51
2022-10-24T00:26:12.274Z,13.55
2022-10-24T00:28:41.152Z,13.54
2022-10-24T00:31:09.721Z,13.53
2022-10-24T00:33:38.970Z,13.53
2022-10-24T00:36:06.865Z,13.51
2022-10-24T00:38:34.473Z,13.47
2022-10-24T00:41:02.062Z,13.45
2022-10-24T00:43:29.651Z,13.43
2022-10-24T00:45:58.606Z,13.45
2022-10-24T00:48:28.827Z,13.44
2022-10-24T00:51:02.070Z,13.42
2022-10-24T00:53:31.128Z,13.44
2022-10-24T00:56:01.571Z,13.39
2022-10-24T00:58:32.674Z,13.35
2022-10-24T01:01:00.694Z,13.37
2022-10-24T01:03:29.225Z,13.22
2022-10-24T01:06:08.443Z,13.13
2022-10-24T01:08:40.079Z,13.08
2022-10-24T01:11:16.018Z,13.10
2022-10-24T01:13:51.819Z,12.99
2022-10-24T01:16:24.598Z,13.04
2022-10-24T01:18:56.030Z,13.05
2022-10-24T01:21:30.462Z,13.14
2022-10-24T01:24:07.686Z,13.08
2022-10-24T01:26:53.423Z,13.00
2022-10-24T01:29:33.954Z,13.05
2022-10-24T01:32:06.094Z,12.99
2022-10-24T01:34:37.718Z,13.05
2022-10-24T01:37:07.447Z,13.05
2022-10-24T01:39:39.000Z,12.91
2022-10-24T01:42:07.404Z,12.83
2022-10-24T01:44:39.615Z,12.77
2022-10-24T01:47:10.381Z,12.75
2022-10-24T01:49:39.956Z,12.82
2022-10-24T01:52:10.275Z,12.75
2022-10-24T01:54:39.443Z,12.72
2022-10-24T01:57:07.114Z,12.68
2022-10-24T01:59:44.592Z,12.60
2022-10-24T02:02:16.958Z,12.61
2022-10-24T02:04:49.955Z,12.65
2022-10-24T02:07:19.759Z,12.65
2022-10-24T02:09:51.205Z,12.54
2022-10-24T02:12:19.709Z,12.49
2022-10-24T02:14:52.444Z,12.55
2022-10-24T02:17:20.118Z,12.60
2022-10-24T02:19:47.984Z,12.50
2022-10-24T02:22:23.106Z,12.48
2022-10-24T02:24:53.895Z,12.55
2022-10-24T02:27:24.328Z,12.62
2022-10-24T02:29:56.131Z,12.67
2022-10-24T02:32:28.118Z,12.74
2022-10-24T02:34:56.432Z,12.75
2022-10-24T02:37:24.719Z,12.76
2022-10-24T02:39:53.499Z,12.81
2022-10-24T02:42:21.839Z,12.88
2022-10-24T02:44:50.184Z,12.91
2022-10-24T02:47:20.204Z,12.91
2022-10-24T02:49:47.730Z,12.93
2022-10-24T02:52:15.580Z,12.96
2022-10-24T02:54:43.097Z,12.93
2022-10-24T02:57:10.666Z,12.92
2022-10-24T02:59:38.210Z,12.96
2022-10-24T03:02:05.742Z,13.00
2022-10-24T03:04:34.662Z,12.97
2022-10-24T03:07:02.220Z,12.92
2022-10-24T03:09:29.771Z,12.99
2022-10-24T03:11:57.271Z,12.99
2022-10-24T03:14:24.817Z,13.04
2022-10-24T03:16:52.367Z,13.02
2022-10-24T03:19:19.999Z,13.04
2022-10-24T03:21:48.850Z,13.07
2022-10-24T03:24:22.945Z,13.08
2022-10-24T03:26:58.900Z,13.05
2022-10-24T03:29:26.443Z,13.10
2022-10-24T03:31:53.937Z,13.16
2022-10-24T03:34:21.477Z,13.18
2022-10-24T03:36:50.315Z,13.16
2022-10-24T03:39:17.879Z,13.06
2022-10-24T03:41:45.577Z,13.07
2022-10-24T03:44:13.107Z,13.05
2022-10-24T03:46:40.634Z,13.01
2022-10-24T03:49:08.237Z,12.98
2022-10-24T03:51:35.755Z,13.01
2022-10-24T03:54:04.958Z,12.99
2022-10-24T03:56:32.475Z,13.02
2022-10-24T03:59:00.078Z,12.99
2022-10-24T04:01:27.686Z,13.02
2022-10-24T04:03:55.337Z,13.03
2022-10-24T04:06:22.876Z,13.01
2022-10-24T04:08:50.444Z,13.07
2022-10-24T04:11:19.377Z,13.09
2022-10-24T04:13:46.947Z,13.16
2022-10-24T04:16:14.473Z,13.14
2022-10-24T04:18:42.049Z,13.13
2022-10-24T04:21:09.581Z,13.25
2022-10-24T04:23:40.950Z,13.18
2022-10-24T04:26:08.602Z,13.32
2022-10-24T04:28:37.534Z,13.32
2022-10-24T04:31:05.658Z,13.38
2022-10-24T04:33:33.231Z,13.37
2022-10-24T04:36:00.780Z,13.38
2022-10-24T04:38:33.208Z,13.30
2022-10-24T04:41:01.556Z,13.26
2022-10-24T04:43:29.085Z,13.23
2022-10-24T04:45:57.974Z,13.24
2022-10-24T04:48:25.561Z,13.24
2022-10-24T04:50:53.131Z,13.29
2022-10-24T04:53:20.738Z,13.30
2022-10-24T04:55:48.302Z,13.26
2022-10-24T04:58:16.037Z,13.22
2022-10-24T05:00:46.593Z,13.19
2022-10-24T05:03:15.589Z,13.13
2022-10-24T05:05:43.134Z,13.13
2022-10-24T05:08:10.699Z,13.11
2022-10-24T05:10:38.366Z,13.08
2022-10-24T05:13:05.957Z,13.10
2022-10-24T05:15:33.684Z,13.08
2022-10-24T05:18:01.578Z,13.05
2022-10-24T05:20:30.632Z,13.04
2022-10-24T05:22:58.289Z,13.01
2022-10-24T05:25:25.831Z,13.09
2022-10-24T05:27:53.401Z,13.10
2022-10-24T05:30:21.014Z,13.02
2022-10-24T05:32:48.588Z,13.00
2022-10-24T05:35:16.493Z,12.98
2022-10-24T05:37:45.510Z,12.98
2022-10-24T05:40:14.127Z,12.93
2022-10-24T05:42:41.737Z,12.87
2022-10-24T05:45:11.615Z,12.84
2022-10-24T05:47:39.309Z,12.86
2022-10-24T05:50:07.964Z,12.79
2022-10-24T05:52:36.431Z,12.94
2022-10-24T05:55:08.069Z,13.04
2022-10-24T05:57:36.765Z,13.00
2022-10-24T06:00:05.715Z,13.10
2022-10-24T06:02:33.354Z,13.01
2022-10-24T06:05:01.074Z,13.05
2022-10-24T06:07:28.593Z,12.99
2022-10-24T06:09:56.380Z,13.06
2022-10-24T06:12:25.607Z,13.03
2022-10-24T06:14:57.019Z,13.07
2022-10-24T06:17:24.541Z,13.04
2022-10-24T06:19:52.180Z,13.16
2022-10-24T06:22:20.158Z,13.20
2022-10-24T06:24:47.694Z,13.21
2022-10-24T06:27:15.613Z,13.28
2022-10-24T06:29:44.735Z,13.28
2022-10-24T06:32:12.425Z,13.25
2022-10-24T06:34:40.145Z,13.23
2022-10-24T06:37:07.669Z,13.30
2022-10-24T06:39:35.253Z,13.31
2022-10-24T06:42:03.133Z,13.38
2022-10-24T06:44:30.706Z,13.46
2022-10-24T06:46:59.594Z,13.50
2022-10-24T06:49:27.195Z,13.56
2022-10-24T06:51:54.725Z,13.70
2022-10-24T06:54:24.150Z,13.68
2022-10-24T06:56:54.025Z,13.68
2022-10-24T06:59:21.605Z,13.67
2022-10-24T07:01:49.305Z,13.78
2022-10-24T07:04:18.350Z,13.70
2022-10-24T07:06:45.964Z,13.84
2022-10-24T07:09:15.445Z,13.76
2022-10-24T07:11:43.635Z,13.67
2022-10-24T07:14:11.405Z,13.74
2022-10-24T07:16:39.345Z,13.76
2022-10-24T07:19:07.449Z,13.75
2022-10-24T07:21:36.437Z,13.78
2022-10-24T07:24:04.209Z,13.82
2022-10-24T07:26:32.328Z,13.85
2022-10-24T07:31:32.118Z,14.05
2022-10-24T07:34:01.465Z,14.07
2022-10-24T07:36:30.478Z,14.25
2022-10-24T07:39:01.414Z,14.23
2022-10-24T07:41:30.216Z,14.25
2022-10-24T07:43:58.383Z,14.28
2022-10-24T07:46:26.007Z,14.33
2022-10-24T07:48:54.225Z,14.36
2022-10-24T07:51:22.480Z,14.50
2022-10-24T07:53:50.475Z,14.54
2022-10-24T07:56:19.376Z,14.61
2022-10-24T07:58:49.130Z,14.69
2022-10-24T08:01:18.313Z,14.72
2022-10-24T08:03:46.651Z,14.82
2022-10-24T08:06:15.971Z,14.85
2022-10-24T08:08:43.801Z,14.91
2022-10-24T08:11:12.900Z,14.96
2022-10-24T08:13:41.827Z,15.09
2022-10-24T08:16:11.811Z,15.06
2022-10-24T08:18:40.123Z,15.16
2022-10-24T08:21:09.320Z,15.25
2022-10-24T08:23:38.633Z,15.41
2022-10-24T08:26:06.867Z,15.46
2022-10-24T08:28:34.568Z,15.66
2022-10-24T08:31:05.225Z,15.86
2022-10-24T08:33:33.301Z,15.97
2022-10-24T08:36:02.974Z,15.96
2022-10-24T08:38:31.049Z,15.95
2022-10-24T08:40:59.140Z,15.90
2022-10-24T08:43:26.921Z,15.95
2022-10-24T08:46:01.908Z,16.07
2022-10-24T08:48:33.868Z,16.11
2022-10-24T08:51:09.055Z,16.17
2022-10-24T08:53:36.972Z,16.33
2022-10-24T08:56:04.868Z,16.35
2022-10-24T08:58:35.729Z,16.39
2022-10-24T09:01:05.104Z,16.53
2022-10-24T09:03:51.228Z,16.74
2022-10-24T09:06:24.423Z,16.89
2022-10-24T09:08:53.809Z,17.00
2022-10-24T09:11:25.510Z,17.19
2022-10-24T09:13:53.206Z,17.42
2022-10-24T09:16:22.738Z,17.51
2022-10-24T09:18:52.959Z,17.54
2022-10-24T09:21:20.573Z,17.73
2022-10-24T09:23:48.348Z,17.97
2022-10-24T09:26:18.716Z,18.06
2022-10-24T09:28:46.251Z,18.13
2022-10-24T09:31:17.835Z,18.26
2022-10-24T09:33:46.328Z,18.23
2022-10-24T09:36:17.521Z,18.01
2022-10-24T09:38:46.746Z,17.95
2022-10-24T09:41:18.986Z,17.80
2022-10-24T09:43:53.302Z,17.90
2022-10-24T09:46:22.703Z,18.04
2022-10-24T09:48:53.214Z,18.17
2022-10-24T09:51:26.209Z,18.32
2022-10-24T09:54:03.785Z,18.46
2022-10-24T09:56:38.866Z,18.47
2022-10-24T09:59:24.055Z,18.67
2022-10-24T10:01:51.806Z,18.92
2022-10-24T10:04:20.323Z,18.85
2022-10-24T10:06:50.893Z,19.08
2022-10-24T10:09:25.678Z,19.00
2022-10-24T10:12:02.572Z,19.14
2022-10-24T10:14:30.881Z,19.27
2022-10-24T10:17:03.174Z,19.27
2022-10-24T10:19:31.853Z,19.33
2022-10-24T10:22:02.470Z,19.32
2022-10-24T10:24:39.874Z,19.34
2022-10-24T10:27:32.017Z,19.49
2022-10-24T10:30:11.135Z,19.41
2022-10-24T10:32:42.381Z,19.57
2022-10-24T10:35:15.511Z,19.48
2022-10-24T10:37:48.401Z,19.51
2022-10-24T10:40:27.371Z,19.63
2022-10-24T10:43:08.323Z,19.68
2022-10-24T10:45:37.606Z,19.78
2022-10-24T10:48:35.978Z,19.89
2022-10-24T10:51:08.304Z,19.80
2022-10-24T10:53:40.660Z,19.73
2022-10-24T10:56:19.361Z,19.91
2022-10-24T10:58:51.388Z,19.93
2022-10-24T11:01:25.508Z,20.21
2022-10-24T11:04:00.366Z,20.13
2022-10-24T11:06:35.985Z,20.03
2022-10-24T11:09:23.374Z,20.24
2022-10-24T11:11:54.240Z,20.28
2022-10-24T11:14:29.329Z,20.35
2022-10-24T11:16:59.650Z,20.55
2022-10-24T11:19:31.274Z,20.51
2022-10-24T11:22:02.793Z,20.45
2022-10-24T11:24:40.388Z,20.22
2022-10-24T11:27:10.897Z,20.44
2022-10-24T11:29:41.662Z,20.69
2022-10-24T11:32:17.919Z,20.68
2022-10-24T11:34:50.611Z,20.66
2022-10-24T11:37:20.452Z,20.62
2022-10-24T11:39:55.161Z,20.74
2022-10-24T11:42:27.619Z,20.81
2022-10-24T11:44:59.810Z,20.77
2022-10-24T11:47:45.362Z,20.91
2022-10-24T11:50:21.848Z,20.96
2022-10-24T11:52:53.909Z,21.04
2022-10-24T11:55:23.953Z,21.10
2022-10-24T11:57:53.904Z,21.12
2022-10-24T12:00:24.733Z,20.93
2022-10-24T12:03:24.376Z,20.88
2022-10-24T12:06:00.722Z,20.68
2022-10-24T12:08:50.803Z,20.65
2022-10-24T12:11:43.863Z,20.56
2022-10-24T12:14:46.968Z,20.64
2022-10-24T12:17:39.511Z,20.44
2022-10-24T12:20:09.216Z,20.60
2022-10-24T12:22:39.691Z,20.63
2022-10-24T12:25:09.198Z,20.43
2022-10-24T12:27:39.832Z,20.67
2022-10-24T12:30:17.237Z,20.59
2022-10-24T12:32:46.849Z,20.54
2022-10-24T12:35:34.815Z,20.66
2022-10-24T12:38:02.924Z,20.71
2022-10-24T12:40:58.533Z,20.76
2022-10-24T12:43:33.082Z,20.74
2022-10-24T12:46:01.865Z,20.53
2022-10-24T12:48:32.126Z,20.63
2022-10-24T12:51:05.683Z,20.56
2022-10-24T12:53:39.199Z,20.55
2022-10-24T12:56:15.420Z,20.77
2022-10-24T12:58:46.711Z,20.67
2022-10-24T13:01:25.887Z,20.54
2022-10-24T13:04:27.075Z,20.74
2022-10-24T13:07:09.009Z,20.74
2022-10-24T13:09:41.560Z,20.75
2022-10-24T13:12:19.871Z,20.95
2022-10-24T13:15:01.395Z,20.83
2022-10-24T13:17:33.621Z,20.62
2022-10-24T13:20:07.090Z,20.88
2022-10-24T13:22:37.111Z,20.68
2022-10-24T13:25:20.759Z,20.53
2022-10-24T13:28:27.246Z,20.67
2022-10-24T13:31:28.581Z,20.09
2022-10-24T13:34:14.221Z,20.26
2022-10-24T13:36:43.196Z,20.04
2022-10-24T13:39:13.051Z,20.12
2022-10-24T13:41:43.003Z,20.31
2022-10-24T13:44:20.274Z,20.42
2022-10-24T13:46:53.468Z,20.21
2022-10-24T13:49:29.246Z,20.26
2022-10-24T13:51:58.162Z,20.19
2022-10-24T13:54:28.315Z,20.23
2022-10-24T13:56:58.496Z,20.25
2022-10-24T13:59:31.124Z,20.01
2022-10-24T14:01:59.866Z,20.04
2022-10-24T14:04:29.246Z,20.03
2022-10-24T14:07:02.440Z,20.15
2022-10-24T14:09:30.016Z,20.17
2022-10-24T14:11:58.025Z,19.82
2022-10-24T14:14:29.456Z,19.72
2022-10-24T14:17:22.756Z,19.68
2022-10-24T14:19:55.385Z,19.76
2022-10-24T14:22:25.456Z,19.63
2022-10-24T14:24:53.226Z,19.68
2022-10-24T14:27:21.168Z,19.78
2022-10-24T14:29:54.672Z,19.74
2022-10-24T14:32:22.340Z,19.66
2022-10-24T14:34:51.999Z,19.62
2022-10-24T14:37:27.027Z,19.61
2022-10-24T14:39:55.245Z,19.51
2022-10-24T14:42:22.817Z,19.51
2022-10-24T14:44:54.840Z,19.49
2022-10-24T14:47:29.207Z,19.38
2022-10-24T14:49:59.000Z,19.45
2022-10-24T14:52:29.022Z,19.18
2022-10-24T14:55:01.105Z,19.19
2022-10-24T14:57:29.944Z,19.04
2022-10-24T14:59:59.692Z,19.00
2022-10-24T15:02:29.272Z,18.97
2022-10-24T15:05:29.370Z,19.02
2022-10-24T15:08:21.737Z,18.77
2022-10-24T15:10:50.351Z,18.62
2022-10-24T15:13:21.039Z,18.62
2022-10-24T15:15:52.237Z,18.42
2022-10-24T15:18:22.414Z,18.44
2022-10-24T15:20:51.857Z,18.50
2022-10-24T15:23:23.761Z,18.20
2022-10-24T15:26:00.956Z,18.12
2022-10-24T15:28:37.270Z,18.07
2022-10-24T15:31:04.985Z,18.00
2022-10-24T15:33:32.680Z,18.25
2022-10-24T15:36:00.251Z,18.10
2022-10-24T15:38:29.171Z,18.13
2022-10-24T15:40:58.301Z,17.90
2022-10-24T15:43:25.858Z,17.81
2022-10-24T15:45:53.421Z,17.66
2022-10-24T15:48:21.097Z,17.69
2022-10-24T15:50:48.659Z,17.68
2022-10-24T15:53:18.762Z,17.54
2022-10-24T15:55:47.970Z,17.48
2022-10-24T15:58:16.683Z,17.33
2022-10-24T16:00:44.435Z,17.37
2022-10-24T16:03:15.290Z,17.34
2022-10-24T16:05:44.419Z,17.20
2022-10-24T16:08:14.465Z,17.14
2022-10-24T16:10:42.280Z,17.13
2022-10-24T16:13:11.545Z,17.13
2022-10-24T16:15:39.910Z,16.98
2022-10-24T16:18:07.679Z,16.95
2022-10-24T16:20:35.849Z,16.95
2022-10-24T16:23:04.401Z,16.90
2022-10-24T16:25:33.979Z,16.86
2022-10-24T16:28:01.840Z,16.72
2022-10-24T16:30:33.116Z,16.62
2022-10-24T16:33:00.707Z,16.50
2022-10-24T16:35:30.045Z,16.42
2022-10-24T16:37:59.255Z,16.43
2022-10-24T16:40:27.794Z,16.30
2022-10-24T16:42:56.518Z,16.23
2022-10-24T16:45:24.417Z,16.16
2022-10-24T16:47:53.568Z,16.08
2022-10-24T16:50:24.303Z,15.96
2022-10-24T16:52:52.996Z,15.96
2022-10-24T16:55:21.005Z,15.96
2022-10-24T16:57:49.107Z,16.00
2022-10-24T17:00:17.871Z,15.97
2022-10-24T17:02:46.266Z,15.99
2022-10-24T17:05:16.179Z,15.94
2022-10-24T17:07:44.650Z,15.80
2022-10-24T17:10:13.367Z,15.97
2022-10-24T17:12:42.675Z,15.82
2022-10-24T17:15:11.469Z,15.76
2022-10-24T17:17:39.823Z,15.77
2022-10-24T17:20:09.041Z,15.75
2022-10-24T17:22:39.745Z,15.76
2022-10-24T17:25:08.613Z,15.71
2022-10-24T17:27:36.399Z,15.67
2022-10-24T17:30:04.408Z,15.63
2022-10-24T17:32:33.089Z,15.70
2022-10-24T17:35:01.112Z,15.57
2022-10-24T17:37:38.725Z,15.57
2022-10-24T17:40:14.119Z,15.48
2022-10-24T17:42:43.249Z,15.46
2022-10-24T17:45:15.173Z,15.36
2022-10-24T17:47:43.221Z,15.43
2022-10-24T17:50:11.239Z,15.26
2022-10-24T17:52:42.209Z,15.24
2022-10-24T17:55:41.040Z,15.18
2022-10-24T17:58:06.491Z,15.24
2022-10-24T18:00:34.350Z,15.31
2022-10-24T18:03:01.986Z,15.28
2022-10-24T18:05:29.763Z,15.28
2022-10-24T18:07:57.891Z,15.21
2022-10-24T18:10:26.807Z,15.20
2022-10-24T18:12:54.387Z,15.17
2022-10-24T18:15:22.186Z,15.15
2022-10-24T18:17:49.783Z,15.06
2022-10-24T18:20:18.517Z,15.01
2022-10-24T18:22:46.362Z,15.04
2022-10-24T18:25:18.767Z,14.98
2022-10-24T18:27:51.084Z,14.99
2022-10-24T18:30:19.738Z,15.00
2022-10-24T18:32:47.977Z,15.07
2022-10-24T18:35:16.700Z,15.11
2022-10-24T18:37:44.376Z,15.10
2022-10-24T18:40:13.292Z,14.99
2022-10-24T18:42:44.660Z,15.13
2022-10-24T18:45:19.904Z,15.06
2022-10-24T18:47:48.351Z,15.02
2022-10-24T18:50:20.207Z,15.09
2022-10-24T18:52:51.490Z,15.02
2022-10-24T18:55:21.901Z,15.01
2022-10-24T18:57:50.573Z,14.93
2022-10-24T19:00:21.401Z,14.81
2022-10-24T19:02:57.263Z,14.69
2022-10-24T19:05:27.571Z,14.70
2022-10-24T19:07:55.317Z,14.64
2022-10-24T19:10:25.194Z,14.66
2022-10-24T19:12:54.230Z,14.64
2022-10-24T19:15:24.203Z,14.69
2022-10-24T19:17:52.398Z,14.69
2022-10-24T19:20:22.464Z,14.81
2022-10-24T19:22:50.290Z,14.74
2022-10-24T19:25:18.677Z,14.81
2022-10-24T19:27:46.349Z,14.89
2022-10-24T19:30:14.645Z,14.77
2022-10-24T19:32:43.828Z,14.75
2022-10-24T19:35:11.666Z,14.72
2022-10-24T19:37:39.345Z,14.74
2022-10-24T19:40:08.453Z,14.64
2022-10-24T19:42:36.167Z,14.58
2022-10-24T19:45:05.165Z,14.47
2022-10-24T19:47:32.811Z,14.52
2022-10-24T19:50:01.822Z,14.36
2022-10-24T19:52:29.497Z,14.33
2022-10-24T19:54:57.015Z,14.40
2022-10-24T19:57:24.607Z,14.41
2022-10-24T19:59:53.743Z,14.26
2022-10-24T20:02:22.121Z,14.17
2022-10-24T20:04:49.701Z,14.13
2022-10-24T20:07:18.635Z,14.17
2022-10-24T20:09:46.165Z,14.32
2022-10-24T20:12:13.688Z,14.25
2022-10-24T20:14:41.260Z,14.31
2022-10-24T20:17:08.797Z,14.25
2022-10-24T20:19:36.511Z,14.35
2022-10-24T20:22:04.102Z,14.37
2022-10-24T20:24:33.514Z,14.16
2022-10-24T20:27:01.234Z,14.13
2022-10-24T20:29:28.894Z,14.16
2022-10-24T20:31:56.602Z,14.18
2022-10-24T20:34:24.260Z,14.13
2022-10-24T20:36:54.937Z,14.04
2022-10-24T20:39:22.552Z,14.01
2022-10-24T20:41:54.009Z,13.82
2022-10-24T20:44:22.141Z,13.95
2022-10-24T20:46:49.874Z,13.89
2022-10-24T20:49:17.579Z,13.87
2022-10-24T20:51:45.163Z,13.84
2022-10-24T20:54:12.750Z,13.81
2022-10-24T20:56:42.541Z,13.81
2022-10-24T20:59:14.972Z,13.85
2022-10-24T21:01:42.634Z,13.79
2022-10-24T21:04:15.701Z,13.75
2022-10-24T21:06:46.326Z,13.82
2022-10-24T21:09:17.722Z,13.73
2022-10-24T21:11:45.329Z,13.70
2022-10-24T21:14:17.945Z,13.69
2022-10-24T21:16:45.495Z,13.66
2022-10-24T21:19:13.149Z,13.52
2022-10-24T21:21:40.802Z,13.57
2022-10-24T21:24:08.619Z,13.60
2022-10-24T21:26:38.102Z,13.42
2022-10-24T21:29:31.792Z,13.43
2022-10-24T21:31:55.315Z,13.35
2022-10-24T21:34:23.071Z,13.41
2022-10-24T21:36:50.710Z,13.36
2022-10-24T21:39:18.687Z,13.36
2022-10-24T21:41:46.514Z,13.44
2022-10-24T21:44:15.012Z,13.29
2022-10-24T21:46:44.969Z,13.47
2022-10-24T21:49:16.088Z,13.41
2022-10-24T21:51:44.941Z,13.42
2022-10-24T21:54:17.300Z,13.27
2022-10-24T21:56:45.186Z,13.28
2022-10-24T21:59:14.084Z,13.23
2022-10-24T22:01:42.622Z,13.20
2022-10-24T22:04:12.145Z,13.28
2022-10-24T22:06:41.864Z,13.18
2022-10-24T22:09:12.589Z,13.16
2022-10-24T22:11:41.668Z,13.19
2022-10-24T22:14:11.313Z,13.17
2022-10-24T22:16:39.274Z,13.09
2022-10-24T22:19:07.121Z,13.05
2022-10-24T22:21:36.977Z,13.00
2022-10-24T22:26:35.836Z,12.99
2022-10-24T22:29:03.500Z,13.08
2022-10-24T22:31:31.654Z,13.01
2022-10-24T22:34:11.588Z,13.02
2022-10-24T22:37:12.027Z,13.06
2022-10-24T22:39:41.724Z,13.00
2022-10-24T22:42:12.428Z,12.90
2022-10-24T22:44:43.241Z,12.90
2022-10-24T22:47:21.752Z,12.93
2022-10-24T22:49:55.442Z,12.86
2022-10-24T22:52:23.528Z,12.80
2022-10-24T22:54:53.416Z,12.87
2022-10-24T22:57:21.573Z,12.83
2022-10-24T22:59:49.763Z,12.86
2022-10-24T23:02:25.948Z,12.83
2022-10-24T23:05:01.791Z,12.84
2022-10-24T23:07:37.116Z,12.83
2022-10-24T23:10:09.480Z,12.85
2022-10-24T23:12:37.746Z,12.76
2022-10-24T23:15:06.456Z,12.77
2022-10-24T23:17:34.640Z,12.81
2022-10-24T23:20:02.764Z,12.73
2022-10-24T23:22:31.609Z,12.72
2022-10-24T23:25:00.942Z,12.66
2022-10-24T23:27:34.311Z,12.60
2022-10-24T23:30:03.165Z,12.58
2022-10-24T23:32:32.763Z,12.53
2022-10-24T23:35:01.146Z,12.51
2022-10-24T23:37:33.855Z,12.56
2022-10-24T23:40:02.660Z,12.53
2022-10-24T23:42:32.234Z,12.51
2022-10-24T23:45:00.355Z,12.49
2022-10-24T23:47:50.632Z,12.50
2022-10-24T23:50:24.555Z,12.32
2022-10-24T23:53:03.798Z,12.33
2022-10-24T23:55:32.156Z,12.36
2022-10-24T23:58:01.916Z,12.27
